Time;durP1;ratioP1;P1;durP2;ratioP2;P2;SDS_P1;SDS_P2;PMS_P1;PMS_P2;Temp;Humidity;BMP_temperature;BMP_pressure;BME280_temperature;BME280_humidity;BME280_pressure;Samples;Min_cycle;Max_cycle;Signal;HPM_P1;HPM_P2
2023/04/25 00:01:56;;;;;;;3.65;2.17;;;;;;;10.41;80.95;93203.59;5066348;28;20075;-73
2023/04/25 00:04:22;;;;;;;3.13;1.65;;;;;;;10.47;79.17;93190.84;5065977;28;20025;-73
2023/04/25 00:06:47;;;;;;;4.05;1.20;;;;;;;10.55;79.85;93184.66;5066234;28;20226;-73
2023/04/25 00:09:13;;;;;;;2.60;1.20;;;;;;;10.61;77.55;93178.00;5065902;28;20327;-73
2023/04/25 00:11:40;;;;;;;1.55;1.15;;;;;;;10.69;76.98;93170.28;5066061;28;20235;-73
2023/04/25 00:14:06;;;;;;;5.72;1.15;;;;;;;10.73;76.77;93165.84;5065800;28;20083;-73
2023/04/25 00:16:33;;;;;;;1.35;0.95;;;;;;;10.76;76.39;93160.59;5065988;28;20036;-73
2023/04/25 00:18:59;;;;;;;2.55;1.10;;;;;;;10.83;76.61;93150.19;5065797;28;20021;-73
2023/04/25 00:21:25;;;;;;;3.92;0.90;;;;;;;10.92;77.05;93142.09;5066003;28;20021;-73
2023/04/25 00:23:52;;;;;;;2.45;1.15;;;;;;;11.02;77.46;93138.97;5065939;28;20127;-73
2023/04/25 00:26:18;;;;;;;2.33;1.30;;;;;;;11.07;76.83;93135.31;5065781;28;20259;-73
2023/04/25 00:28:43;;;;;;;1.98;1.17;;;;;;;11.13;77.05;93133.19;5065481;28;20045;-73
2023/04/25 00:31:09;;;;;;;5.80;1.55;;;;;;;11.17;77.39;93128.75;5065478;28;20048;-73
2023/04/25 00:33:35;;;;;;;3.55;1.48;;;;;;;11.22;78.23;93115.22;5065677;28;20226;-73
2023/04/25 00:36:01;;;;;;;2.55;1.52;;;;;;;11.19;78.99;93116.66;5065430;28;20021;-76
2023/04/25 00:38:26;;;;;;;3.47;1.83;;;;;;;11.08;78.66;93126.22;5065409;28;20021;-73
2023/04/25 00:40:52;;;;;;;4.50;2.63;;;;;;;10.97;79.43;93125.88;5065476;28;20024;-74
2023/04/25 00:43:18;;;;;;;4.00;2.83;;;;;;;10.89;80.40;93132.09;5065453;28;20033;-73
2023/04/25 00:45:46;;;;;;;5.55;2.83;;;;;;;10.81;81.14;93130.31;5065258;28;20177;-74
2023/04/25 00:48:14;;;;;;;4.25;2.80;;;;;;;10.77;81.56;93122.19;5065296;28;20029;-74
2023/04/25 00:50:40;;;;;;;6.50;3.45;;;;;;;10.81;82.27;93124.97;5065263;28;20051;-73
2023/04/25 00:53:06;;;;;;;8.77;4.22;;;;;;;10.74;83.27;93135.41;5065040;28;20029;-73
2023/04/25 00:55:34;;;;;;;5.63;3.70;;;;;;;10.71;83.88;93142.19;5065037;28;20095;-73
2023/04/25 00:58:00;;;;;;;6.38;3.55;;;;;;;10.66;84.78;93128.28;5064545;28;20025;-73
2023/04/25 01:00:25;;;;;;;8.75;4.68;;;;;;;10.60;85.52;93143.69;5064751;28;20024;-73
2023/04/25 01:02:51;;;;;;;7.40;4.47;;;;;;;10.49;85.33;93147.91;5065007;28;20315;-73
2023/04/25 01:05:18;;;;;;;6.78;4.53;;;;;;;10.44;85.30;93130.22;5064986;28;20322;-73
2023/04/25 01:07:44;;;;;;;10.82;4.22;;;;;;;10.41;85.86;93130.91;5064674;28;20031;-73
2023/04/25 01:10:10;;;;;;;7.72;4.32;;;;;;;10.43;86.52;93123.34;5064732;28;20021;-73
2023/04/25 01:12:36;;;;;;;7.88;3.72;;;;;;;10.37;85.34;93108.69;5064897;28;20060;-73
2023/04/25 01:15:01;;;;;;;5.97;3.78;;;;;;;10.37;85.63;93111.34;5064664;28;20020;-73
2023/04/25 01:17:27;;;;;;;6.00;3.72;;;;;;;10.40;85.67;93108.00;5064615;28;20240;-73
2023/04/25 01:19:53;;;;;;;9.50;4.95;;;;;;;10.42;85.54;93103.94;5064595;28;20017;-73
2023/04/25 01:22:18;;;;;;;8.27;5.13;;;;;;;10.38;86.77;93080.91;5064425;28;20039;-74
2023/04/25 01:24:45;;;;;;;13.40;8.20;;;;;;;10.40;87.26;93092.03;5064493;28;20099;-73
2023/04/25 01:27:10;;;;;;;8.20;5.93;;;;;;;10.28;87.30;93098.09;5064325;28;20028;-73
2023/04/25 01:29:36;;;;;;;7.68;5.53;;;;;;;10.24;87.43;93110.50;5063159;28;20029;-74
2023/04/25 01:32:03;;;;;;;8.50;5.40;;;;;;;10.21;87.30;93116.47;5064404;28;20036;-73
2023/04/25 01:34:28;;;;;;;8.35;6.07;;;;;;;10.06;88.42;93104.56;5064472;28;20027;-73
2023/04/25 01:36:54;;;;;;;10.50;6.38;;;;;;;10.13;88.93;93118.13;5064370;28;20206;-73
2023/04/25 01:39:20;;;;;;;8.40;5.80;;;;;;;10.13;88.36;93112.78;5064223;28;20254;-73
2023/04/25 01:41:47;;;;;;;12.02;5.85;;;;;;;10.09;88.45;93119.88;5063927;28;20036;-73
2023/04/25 01:44:13;;;;;;;9.63;6.00;;;;;;;10.13;88.41;93115.44;5064088;28;20017;-73
2023/04/25 01:46:39;;;;;;;11.35;6.32;;;;;;;10.18;88.24;93117.16;5064022;28;20025;-73
2023/04/25 01:49:04;;;;;;;11.32;6.80;;;;;;;10.20;88.44;93121.03;5064143;28;20017;-73
2023/04/25 01:51:31;;;;;;;11.07;6.82;;;;;;;10.25;88.05;93126.16;5063870;28;20021;-74
2023/04/25 01:53:57;;;;;;;10.93;6.70;;;;;;;10.22;88.07;93124.16;5063750;28;20017;-74
2023/04/25 01:56:22;;;;;;;10.75;7.80;;;;;;;10.22;88.47;93126.03;5062691;28;20024;-73
2023/04/25 01:58:48;;;;;;;11.25;7.72;;;;;;;10.24;88.83;93129.94;5063980;28;20021;-73
2023/04/25 02:01:14;;;;;;;11.63;8.70;;;;;;;10.29;88.54;93122.84;5063738;28;20215;-73
2023/04/25 02:03:39;;;;;;;13.27;9.02;;;;;;;10.35;88.42;93121.56;5063860;28;20066;-73
2023/04/25 02:06:05;;;;;;;12.05;8.48;;;;;;;10.40;88.71;93108.81;5063537;28;20311;-73
2023/04/25 02:08:31;;;;;;;11.90;8.60;;;;;;;10.46;88.73;93113.91;5063903;28;20092;-74
2023/04/25 02:10:56;;;;;;;12.75;7.05;;;;;;;10.54;88.69;93113.03;5063484;28;20230;-74
2023/04/25 02:13:22;;;;;;;10.98;7.57;;;;;;;10.58;88.61;93104.06;5063191;28;20367;-73
2023/04/25 02:15:47;;;;;;;13.10;7.70;;;;;;;10.64;88.00;93112.63;5063650;28;20025;-73
2023/04/25 02:18:15;;;;;;;13.00;7.82;;;;;;;10.68;87.36;93094.06;5063378;28;20315;-73
2023/04/25 02:20:41;;;;;;;11.90;8.23;;;;;;;10.65;87.07;93082.19;5063317;28;20037;-73
2023/04/25 02:23:07;;;;;;;12.60;8.18;;;;;;;10.70;86.41;93081.97;5063450;28;20071;-73
2023/04/25 02:25:32;;;;;;;14.05;8.30;;;;;;;10.67;86.25;93095.19;5063465;28;20035;-73
2023/04/25 02:27:58;;;;;;;11.63;7.50;;;;;;;10.65;86.37;93087.53;5063469;28;20318;-74
2023/04/25 02:30:23;;;;;;;15.82;8.30;;;;;;;10.64;86.09;93076.09;5063275;28;20319;-74
2023/04/25 02:32:49;;;;;;;10.88;8.07;;;;;;;10.63;86.28;93076.44;5062302;28;20041;-74
2023/04/25 02:35:14;;;;;;;14.68;8.70;;;;;;;10.56;85.33;93076.19;5063228;28;20027;-74
2023/04/25 02:37:40;;;;;;;11.55;7.05;;;;;;;10.50;85.17;93080.16;5063125;28;20029;-73
2023/04/25 02:40:06;;;;;;;7.88;5.50;;;;;;;10.43;84.19;93075.41;5062977;28;20032;-73
2023/04/25 02:42:32;;;;;;;10.27;6.75;;;;;;;10.32;84.28;93066.25;5062661;28;20101;-74
2023/04/25 02:44:58;;;;;;;10.80;5.78;;;;;;;10.27;84.23;93072.56;5063087;28;20258;-73
2023/04/25 02:47:23;;;;;;;8.50;4.80;;;;;;;10.19;84.31;93070.75;5062917;28;20093;-73
2023/04/25 02:49:49;;;;;;;9.05;4.45;;;;;;;10.13;83.84;93072.06;5063106;28;20029;-73
2023/04/25 02:52:14;;;;;;;6.97;4.28;;;;;;;10.05;83.61;93055.06;5062920;28;20222;-72
2023/04/25 02:54:40;;;;;;;9.32;4.78;;;;;;;9.99;83.65;93059.06;5062601;28;20242;-74
2023/04/25 02:57:06;;;;;;;12.02;5.65;;;;;;;9.96;83.98;93046.41;5062752;28;20024;-73
2023/04/25 02:59:32;;;;;;;10.05;6.05;;;;;;;9.96;84.08;93054.41;5062871;28;20028;-73
2023/04/25 03:01:57;;;;;;;11.32;5.90;;;;;;;9.94;84.12;93043.31;5062701;28;20238;-73
2023/04/25 03:04:23;;;;;;;10.82;6.20;;;;;;;9.93;83.97;93052.38;5062654;28;20025;-73
2023/04/25 03:06:52;;;;;;;9.98;5.90;;;;;;;9.88;84.26;93044.63;5062564;28;20055;-73
2023/04/25 03:09:18;;;;;;;9.13;6.00;;;;;;;9.92;84.23;93050.84;5062877;28;20088;-73
2023/04/25 03:11:45;;;;;;;8.82;6.43;;;;;;;9.94;84.37;93049.41;5062265;28;20021;-73
2023/04/25 03:14:11;;;;;;;11.75;5.57;;;;;;;9.95;84.23;93044.84;5062628;28;20025;-73
2023/04/25 03:16:36;;;;;;;10.20;7.13;;;;;;;9.87;84.23;93043.03;5062630;28;20059;-73
2023/04/25 03:19:03;;;;;;;12.20;7.13;;;;;;;9.85;84.49;93032.75;5062488;28;20017;-73
2023/04/25 03:21:28;;;;;;;10.38;6.63;;;;;;;9.84;84.79;93044.47;5061920;28;20017;-73
2023/04/25 03:23:54;;;;;;;14.40;7.10;;;;;;;9.76;85.01;93038.13;5062538;28;20021;-73
2023/04/25 03:26:20;;;;;;;10.32;7.22;;;;;;;9.79;85.30;93048.13;5062578;28;20093;-73
2023/04/25 03:28:45;;;;;;;12.40;6.75;;;;;;;9.76;85.32;93051.44;5062559;28;20349;-73
2023/04/25 03:31:11;;;;;;;12.60;8.52;;;;;;;9.78;85.34;93053.78;5062638;28;20029;-73
2023/04/25 03:33:36;;;;;;;12.85;8.75;;;;;;;9.82;85.60;93046.69;5062784;28;20086;-73
2023/04/25 03:36:02;;;;;;;16.25;9.00;;;;;;;9.86;85.73;93060.13;5062211;28;20142;-73
2023/04/25 03:38:27;;;;;;;12.43;8.00;;;;;;;9.87;85.97;93048.38;5062445;28;20320;-73
2023/04/25 03:40:54;;;;;;;13.23;9.23;;;;;;;9.86;86.22;93047.59;5061082;28;20024;-75
2023/04/25 03:43:19;;;;;;;16.55;10.02;;;;;;;9.91;86.34;93044.75;5062531;28;20207;-74
2023/04/25 03:45:45;;;;;;;17.55;11.10;;;;;;;9.95;86.39;93037.66;5062175;28;20017;-73
2023/04/25 03:48:11;;;;;;;19.40;11.27;;;;;;;10.03;86.63;93043.97;5062311;28;20369;-73
2023/04/25 03:50:36;;;;;;;19.60;13.38;;;;;;;10.02;87.20;93029.91;5062107;28;20017;-73
2023/04/25 03:53:02;;;;;;;18.63;11.30;;;;;;;10.08;87.05;93048.34;5062160;28;20025;-73
2023/04/25 03:55:27;;;;;;;17.77;11.57;;;;;;;10.08;86.92;93025.16;5062181;28;20017;-73
2023/04/25 03:57:53;;;;;;;16.98;11.98;;;;;;;10.10;87.74;93028.25;5062235;28;20401;-73
2023/04/25 04:00:18;;;;;;;16.60;10.88;;;;;;;10.19;87.82;93025.50;5062539;28;20055;-73
2023/04/25 04:02:44;;;;;;;17.17;10.98;;;;;;;10.29;87.46;93026.97;5062203;28;20036;-72
2023/04/25 04:05:09;;;;;;;17.20;10.20;;;;;;;10.36;86.60;93043.19;5061968;28;20238;-73
2023/04/25 04:07:39;;;;;;;12.82;9.02;;;;;;;10.37;86.68;93044.75;5061940;28;20032;-73
2023/04/25 04:10:06;;;;;;;17.63;8.75;;;;;;;10.44;86.47;93060.94;5062306;28;20017;-73
2023/04/25 04:12:32;;;;;;;9.73;7.35;;;;;;;10.45;85.90;93049.19;5060813;28;20135;-73
2023/04/25 04:14:57;;;;;;;12.85;8.55;;;;;;;10.52;86.48;93053.97;5062080;28;20315;-73
2023/04/25 04:17:22;;;;;;;12.90;7.82;;;;;;;10.53;85.92;93052.88;5060678;28;20026;-73
2023/04/25 04:19:48;;;;;;;16.63;9.15;;;;;;;10.55;86.62;93038.09;5062203;28;20330;-73
2023/04/25 04:22:14;;;;;;;10.80;7.82;;;;;;;10.63;86.43;93053.22;5061881;28;20058;-74
2023/04/25 04:24:39;;;;;;;13.27;8.65;;;;;;;10.60;85.64;93037.91;5062027;28;20025;-73
2023/04/25 04:27:05;;;;;;;15.25;9.40;;;;;;;10.64;86.39;93048.66;5061818;28;20050;-75
2023/04/25 04:29:31;;;;;;;13.23;8.15;;;;;;;10.71;86.40;93064.13;5061922;28;20235;-73
2023/04/25 04:31:56;;;;;;;16.27;7.10;;;;;;;10.68;85.46;93049.53;5062019;28;20092;-73
2023/04/25 04:34:21;;;;;;;9.02;6.53;;;;;;;10.64;85.62;93060.13;5063658;28;20020;-73
2023/04/25 04:36:47;;;;;;;8.13;5.47;;;;;;;10.61;85.41;93060.75;5065666;28;20024;-73
2023/04/25 04:39:13;;;;;;;11.23;7.20;;;;;;;10.59;85.61;93056.88;5065469;28;20196;-73
2023/04/25 04:41:39;;;;;;;14.95;7.65;;;;;;;10.59;85.42;93047.00;5065211;28;20021;-73
2023/04/25 04:44:06;;;;;;;11.38;7.18;;;;;;;10.63;85.88;93058.53;5065136;28;20353;-73
2023/04/25 04:46:37;;;;;;;13.13;8.18;;;;;;;10.74;86.26;93036.78;5064942;28;20226;-73
2023/04/25 04:49:04;;;;;;;10.55;6.90;;;;;;;10.80;86.47;93033.56;5065269;28;20027;-74
2023/04/25 04:51:31;;;;;;;9.23;6.80;;;;;;;10.82;86.47;93039.31;5065244;28;20088;-73
2023/04/25 04:53:58;;;;;;;10.02;7.80;;;;;;;10.91;86.32;93049.09;5065131;28;20028;-73
2023/04/25 04:56:25;;;;;;;14.43;9.35;;;;;;;10.95;86.42;93045.44;5065174;28;20063;-73
2023/04/25 04:58:50;;;;;;;12.10;7.25;;;;;;;10.96;86.10;93051.56;5064954;28;20017;-73
2023/04/25 05:01:16;;;;;;;13.25;8.38;;;;;;;10.96;85.59;93059.53;5065123;28;20096;-73
2023/04/25 05:03:41;;;;;;;11.35;7.60;;;;;;;10.94;85.32;93081.22;5064652;28;20025;-73
2023/04/25 05:06:08;;;;;;;15.18;8.20;;;;;;;10.96;85.51;93068.31;5064338;28;20062;-73
2023/04/25 05:08:34;;;;;;;16.02;7.07;;;;;;;11.01;85.13;93078.78;5063354;28;20025;-73
2023/04/25 05:10:59;;;;;;;12.23;7.38;;;;;;;11.03;84.54;93083.75;5064004;28;20051;-73
2023/04/25 05:13:25;;;;;;;13.85;7.55;;;;;;;11.10;84.57;93072.53;5064183;28;20079;-73
2023/04/25 05:15:50;;;;;;;11.75;7.35;;;;;;;11.16;84.32;93084.53;5062892;28;20040;-74
2023/04/25 05:18:15;;;;;;;16.52;7.60;;;;;;;11.21;83.82;93074.44;5064676;28;20032;-74
2023/04/25 05:20:41;;;;;;;11.65;8.45;;;;;;;11.30;83.57;93084.97;5064032;28;20279;-74
2023/04/25 05:23:06;;;;;;;17.98;8.52;;;;;;;11.35;83.38;93078.63;5062934;28;20021;-74
2023/04/25 05:25:32;;;;;;;11.63;7.55;;;;;;;11.36;83.66;93083.63;5063605;28;20021;-73
2023/04/25 05:27:58;;;;;;;12.23;7.35;;;;;;;11.42;83.27;93073.50;5064252;28;20028;-73
2023/04/25 05:30:23;;;;;;;11.45;7.60;;;;;;;11.50;83.22;93067.25;5064498;28;20024;-73
2023/04/25 05:32:49;;;;;;;12.13;7.40;;;;;;;11.57;82.88;93085.34;5064327;28;20084;-74
2023/04/25 05:35:14;;;;;;;10.48;7.38;;;;;;;11.61;82.38;93086.22;5064303;28;20074;-74
2023/04/25 05:37:40;;;;;;;13.93;7.53;;;;;;;11.64;81.46;93093.56;5064032;28;20033;-74
2023/04/25 05:40:06;;;;;;;8.23;6.72;;;;;;;11.57;81.10;93085.34;5062964;28;20032;-73
2023/04/25 05:42:32;;;;;;;10.80;6.68;;;;;;;11.65;81.12;93079.88;5064330;28;20032;-74
2023/04/25 05:44:58;;;;;;;12.15;8.30;;;;;;;11.68;81.34;93077.66;5063733;28;20029;-73
2023/04/25 05:47:23;;;;;;;11.13;6.72;;;;;;;11.75;81.40;93078.63;5063569;28;20181;-73
2023/04/25 05:49:49;;;;;;;12.07;7.10;;;;;;;11.85;80.68;93083.50;5064233;28;20258;-73
2023/04/25 05:52:15;;;;;;;10.15;7.07;;;;;;;11.95;80.58;93086.84;5063645;28;20017;-73
2023/04/25 05:54:40;;;;;;;11.43;7.82;;;;;;;12.00;79.59;93083.91;5063782;28;20251;-73
2023/04/25 05:57:06;;;;;;;9.98;7.43;;;;;;;12.05;79.36;93086.34;5063971;28;20013;-74
2023/04/25 05:59:31;;;;;;;15.93;8.43;;;;;;;12.09;79.45;93089.88;5063801;28;20227;-74
2023/04/25 06:01:57;;;;;;;12.18;8.25;;;;;;;12.15;79.92;93090.41;5063387;28;20024;-76
2023/04/25 06:04:22;;;;;;;14.77;7.95;;;;;;;12.19;79.82;93091.28;5063440;28;20028;-76
2023/04/25 06:06:48;;;;;;;12.80;8.05;;;;;;;12.23;79.76;93087.59;5062891;28;20031;-82
2023/04/25 06:09:13;;;;;;;13.10;8.30;;;;;;;12.29;79.71;93085.44;5064794;28;20024;-78
2023/04/25 06:11:38;;;;;;;11.55;8.55;;;;;;;12.31;79.43;93077.06;5063986;28;20143;-86
2023/04/25 06:14:06;;;;;;;12.95;8.95;;;;;;;12.39;79.08;93081.50;5063329;28;20095;-86
2023/04/25 06:16:31;;;;;;;11.75;8.18;;;;;;;12.43;78.73;93085.78;5065048;28;20033;-88
2023/04/25 06:18:56;;;;;;;11.20;7.38;;;;;;;12.47;78.31;93082.44;5064050;28;20044;-78
2023/04/25 06:21:22;;;;;;;10.57;7.18;;;;;;;12.42;77.35;93062.09;5062154;28;20075;-78
2023/04/25 06:23:47;;;;;;;10.10;7.10;;;;;;;12.48;77.26;93076.78;5062332;28;20017;-78
2023/04/25 06:26:13;;;;;;;15.88;8.13;;;;;;;12.52;76.96;93082.22;5063391;28;20361;-79
2023/04/25 06:28:38;;;;;;;19.25;9.70;;;;;;;12.50;77.01;93085.22;5063147;28;20223;-77
2023/04/25 06:31:03;;;;;;;14.45;10.07;;;;;;;12.56;76.30;93089.19;5063000;28;20021;-76
2023/04/25 06:33:29;;;;;;;13.55;9.65;;;;;;;12.59;76.45;93090.41;5063137;28;20024;-76
2023/04/25 06:35:54;;;;;;;15.93;10.38;;;;;;;12.70;76.40;93099.47;5063248;28;20321;-76
2023/04/25 06:38:20;;;;;;;14.02;10.15;;;;;;;12.72;76.33;93101.78;5063252;28;20028;-76
2023/04/25 06:40:45;;;;;;;15.98;9.30;;;;;;;12.76;76.22;93100.75;5063318;28;20051;-76
2023/04/25 06:43:11;;;;;;;13.25;8.13;;;;;;;12.85;75.92;93106.69;5063682;28;20024;-87
2023/04/25 06:45:36;;;;;;;11.82;6.78;;;;;;;12.89;74.69;93103.34;5063868;28;20063;-87
2023/04/25 06:48:13;;;;;;;10.95;7.07;;;;;;;12.91;74.11;93104.56;5066256;28;20021;-95
2023/04/25 06:50:39;;;;;;;10.50;7.05;;;;;;;12.96;74.43;93104.28;5069907;28;20052;-96
2023/04/25 06:53:05;;;;;;;10.43;6.85;;;;;;;13.01;73.35;93101.34;5065659;28;20020;-92
2023/04/25 06:55:30;;;;;;;10.15;6.63;;;;;;;13.13;72.93;93094.38;5067753;28;20016;-88
2023/04/25 06:57:56;;;;;;;9.65;7.55;;;;;;;13.24;72.94;93090.78;5066870;28;20047;-95
2023/04/25 07:00:22;;;;;;;18.48;8.23;;;;;;;13.36;73.25;93103.31;5066516;28;20105;-96
2023/04/25 07:02:47;;;;;;;14.30;7.32;;;;;;;13.46;71.45;93095.91;5065252;28;20020;-93
2023/04/25 07:05:30;;;;;;;9.32;6.82;;;;;;;13.54;71.45;93100.28;5069769;28;20091;-96
2023/04/25 07:07:56;;;;;;;9.63;6.72;;;;;;;13.63;71.59;93100.84;5070731;28;20035;-88
2023/04/25 07:10:22;;;;;;;7.95;5.82;;;;;;;13.72;71.15;93104.09;5063030;28;20041;-80
2023/04/25 07:12:47;;;;;;;11.73;7.55;;;;;;;13.78;70.81;93092.00;5063002;28;20060;-82
2023/04/25 07:15:12;;;;;;;12.25;7.03;;;;;;;13.87;71.02;93099.03;5062909;28;20032;-81
2023/04/25 07:17:38;;;;;;;11.65;6.95;;;;;;;13.92;70.52;93093.38;5063334;28;20029;-79
2023/04/25 07:20:05;;;;;;;10.80;7.00;;;;;;;13.97;69.90;93085.84;5063613;28;20270;-90
2023/04/25 07:22:32;;;;;;;13.30;7.05;;;;;;;14.04;69.73;93083.31;5063131;28;20056;-78
2023/04/25 07:24:57;;;;;;;13.75;7.13;;;;;;;14.05;69.10;93084.88;5063145;28;20029;-84
2023/04/25 07:27:23;;;;;;;11.45;5.95;;;;;;;14.09;69.83;93082.25;5061577;28;20365;-89
2023/04/25 07:29:48;;;;;;;12.02;7.00;;;;;;;14.13;69.38;93083.09;5063494;28;20025;-90
2023/04/25 07:32:13;;;;;;;16.95;6.10;;;;;;;14.09;68.05;93082.25;5062687;28;20033;-75
2023/04/25 07:34:39;;;;;;;14.85;6.55;;;;;;;14.18;69.01;93087.41;5062179;28;20025;-77
2023/04/25 07:37:05;;;;;;;11.23;5.60;;;;;;;14.33;69.02;93088.44;5062613;28;20419;-79
2023/04/25 07:39:31;;;;;;;13.00;6.20;;;;;;;14.48;68.71;93092.16;5062384;28;20036;-79
2023/04/25 07:41:58;;;;;;;17.85;5.80;;;;;;;14.56;68.90;93085.81;5062105;28;20079;-79
2023/04/25 07:44:24;;;;;;;51.13;20.52;;;;;;;14.67;67.73;93083.31;5062351;28;20025;-82
2023/04/25 07:46:49;;;;;;;16.20;7.68;;;;;;;14.73;67.20;93066.56;5063120;28;20339;-81
2023/04/25 07:49:15;;;;;;;15.65;7.00;;;;;;;14.84;66.58;93080.94;5062758;28;20017;-80
2023/04/25 07:51:43;;;;;;;14.73;5.82;;;;;;;14.89;65.74;93081.78;5062285;28;20029;-82
2023/04/25 07:54:09;;;;;;;13.45;4.63;;;;;;;14.91;65.03;93074.91;5063057;28;20297;-83
2023/04/25 07:56:34;;;;;;;17.35;5.35;;;;;;;14.92;65.57;93073.78;5063016;28;20017;-81
2023/04/25 07:59:00;;;;;;;10.30;5.38;;;;;;;14.99;65.00;93081.16;5063316;28;20207;-81
2023/04/25 08:01:26;;;;;;;10.85;5.00;;;;;;;15.03;64.58;93074.72;5063034;28;20025;-82
2023/04/25 08:03:52;;;;;;;12.25;5.32;;;;;;;15.11;64.35;93069.47;5062993;28;20029;-84
2023/04/25 08:06:18;;;;;;;24.77;6.72;;;;;;;15.17;65.69;93060.75;5062955;28;20209;-82
2023/04/25 08:08:43;;;;;;;16.77;6.05;;;;;;;15.33;65.05;93074.03;5065102;28;20025;-81
2023/04/25 08:11:09;;;;;;;30.08;7.43;;;;;;;15.45;65.06;93059.63;5066323;28;20032;-80
2023/04/25 08:13:35;;;;;;;12.32;5.00;;;;;;;15.62;64.43;93061.00;5066196;28;20052;-81
2023/04/25 08:16:00;;;;;;;10.77;5.95;;;;;;;15.63;63.52;93065.22;5066170;28;20258;-80
2023/04/25 08:18:25;;;;;;;10.73;5.00;;;;;;;15.76;63.27;93060.44;5065826;28;20041;-79
2023/04/25 08:20:51;;;;;;;10.55;4.95;;;;;;;15.86;62.41;93053.66;5065645;28;20020;-80
2023/04/25 08:23:16;;;;;;;13.80;5.40;;;;;;;16.02;61.27;93055.00;5065633;28;20021;-79
2023/04/25 08:25:42;;;;;;;16.73;5.60;;;;;;;16.15;60.54;93042.06;5065189;28;20059;-79
2023/04/25 08:28:07;;;;;;;24.67;5.32;;;;;;;16.27;59.99;93048.34;5065446;28;20021;-79
2023/04/25 08:30:33;;;;;;;14.55;5.43;;;;;;;16.36;58.35;93054.19;5065421;28;20051;-79
2023/04/25 08:32:58;;;;;;;7.13;4.00;;;;;;;16.20;56.37;93052.50;5065491;28;20028;-80
2023/04/25 08:35:23;;;;;;;9.52;3.83;;;;;;;16.08;56.18;93052.75;5065292;28;20088;-79
2023/04/25 08:37:49;;;;;;;10.98;3.78;;;;;;;16.05;56.44;93051.56;5065372;28;20029;-77
2023/04/25 08:40:15;;;;;;;7.90;3.35;;;;;;;15.90;57.34;93065.22;5064084;28;20228;-77
2023/04/25 08:42:45;;;;;;;6.55;2.45;;;;;;;15.52;56.62;93065.06;5065445;28;20227;-78
2023/04/25 08:45:11;;;;;;;7.63;2.53;;;;;;;15.05;61.58;93031.44;5065289;28;20040;-79
2023/04/25 08:47:38;;;;;;;4.20;1.92;;;;;;;14.99;57.46;93060.47;5064965;28;20100;-78
2023/04/25 08:50:05;;;;;;;5.68;2.35;;;;;;;14.98;60.77;93050.09;5065216;28;20044;-80
2023/04/25 08:52:36;;;;;;;7.30;2.40;;;;;;;14.94;63.32;93042.00;5064453;28;20029;-83
2023/04/25 08:55:04;;;;;;;3.53;1.83;;;;;;;14.98;60.11;93042.03;5066016;28;20100;-84
2023/04/25 08:57:31;;;;;;;3.55;1.80;;;;;;;15.03;59.31;93047.88;5065489;28;20311;-82
2023/04/25 08:59:57;;;;;;;6.80;2.90;;;;;;;15.21;61.35;93037.41;5065701;28;20062;-82
2023/04/25 09:02:24;;;;;;;10.55;2.88;;;;;;;15.34;62.38;93035.28;5065401;28;20027;-79
2023/04/25 09:04:50;;;;;;;13.60;3.55;;;;;;;15.51;64.28;93052.00;5065155;28;20035;-79
2023/04/25 09:07:21;;;;;;;8.60;4.97;;;;;;;15.67;64.92;93046.47;5064875;28;20025;-77
2023/04/25 09:09:46;;;;;;;8.18;4.28;;;;;;;15.80;61.32;93048.59;5063530;28;20029;-78
2023/04/25 09:12:12;;;;;;;12.02;5.47;;;;;;;15.96;64.22;93039.56;5065136;28;20431;-83
2023/04/25 09:14:37;;;;;;;9.73;4.20;;;;;;;16.20;61.71;93038.28;5065677;28;20259;-84
2023/04/25 09:17:04;;;;;;;12.63;4.32;;;;;;;16.29;60.62;93038.75;5064655;28;20041;-78
2023/04/25 09:19:39;;;;;;;6.85;3.30;;;;;;;16.39;59.57;93040.03;5063835;28;20031;-82
2023/04/25 09:22:05;;;;;;;11.35;3.97;;;;;;;16.53;60.05;93034.78;5063984;28;20025;-82
2023/04/25 09:24:41;;;;;;;10.38;5.13;;;;;;;16.68;59.90;93029.53;5064577;28;20024;-83
2023/04/25 09:27:10;;;;;;;8.55;3.67;;;;;;;16.73;58.36;93045.31;5063992;28;20123;-83
2023/04/25 09:29:37;;;;;;;11.43;5.60;;;;;;;16.78;58.99;93036.91;5064453;28;20092;-82
2023/04/25 09:32:14;;;;;;;6.38;4.70;;;;;;;16.88;58.97;93036.25;5064734;28;20067;-83
2023/04/25 09:34:42;;;;;;;9.82;4.57;;;;;;;16.93;58.55;93025.13;5064682;28;20104;-82
2023/04/25 09:37:09;;;;;;;8.85;4.53;;;;;;;16.97;58.58;93031.31;5064467;28;20139;-83
2023/04/25 09:39:35;;;;;;;9.18;4.32;;;;;;;17.00;57.91;93035.97;5064615;28;20024;-83
2023/04/25 09:42:00;;;;;;;8.75;4.35;;;;;;;17.01;57.15;93053.66;5063317;28;20096;-83
2023/04/25 09:44:26;;;;;;;8.13;4.25;;;;;;;16.80;56.72;93042.69;5064548;28;20132;-82
2023/04/25 09:46:53;;;;;;;10.57;4.85;;;;;;;16.71;58.77;93028.75;5064021;28;20079;-82
2023/04/25 09:49:20;;;;;;;9.82;4.43;;;;;;;16.72;59.47;93035.72;5064427;28;20032;-83
2023/04/25 09:52:00;;;;;;;9.18;4.05;;;;;;;16.70;57.73;93032.63;5062969;28;20021;-82
2023/04/25 09:54:26;;;;;;;2.83;1.40;;;;;;;16.45;54.09;93030.47;5064090;28;20028;-83
2023/04/25 09:56:53;;;;;;;2.63;1.65;;;;;;;16.30;51.50;93026.09;5064347;28;20029;-83
2023/04/25 09:59:25;;;;;;;2.42;1.27;;;;;;;16.22;52.10;93019.84;5062853;28;20032;-82
2023/04/25 10:01:51;;;;;;;4.22;1.25;;;;;;;16.18;52.40;93009.09;5063963;28;20021;-82
2023/04/25 10:04:22;;;;;;;2.50;0.60;;;;;;;15.72;44.35;93019.28;5064294;28;20051;-83
2023/04/25 10:06:50;;;;;;;1.63;0.75;;;;;;;15.39;45.28;93016.19;5063919;28;20020;-83
2023/04/25 10:09:17;;;;;;;3.97;1.08;;;;;;;15.18;48.32;93030.09;5063822;28;20299;-83
2023/04/25 10:11:45;;;;;;;4.07;0.77;;;;;;;15.20;53.00;93037.78;5064068;28;20027;-82
2023/04/25 10:14:12;;;;;;;3.47;0.77;;;;;;;14.85;46.41;93039.56;5063722;28;20029;-81
2023/04/25 10:16:38;;;;;;;3.47;0.70;;;;;;;14.79;49.67;93065.13;5063929;28;20013;-84
2023/04/25 10:19:04;;;;;;;2.45;0.43;;;;;;;14.46;48.48;93052.28;5064027;28;20043;-84
2023/04/25 10:21:33;;;;;;;1.02;0.40;;;;;;;14.35;50.55;93033.34;5063420;28;20075;-77
2023/04/25 10:23:59;;;;;;;1.98;0.50;;;;;;;14.49;51.25;93022.09;5063340;28;20035;-79
2023/04/25 10:26:25;;;;;;;1.50;0.60;;;;;;;14.57;52.19;93017.63;5063204;28;20021;-85
2023/04/25 10:29:00;;;;;;;4.80;1.27;;;;;;;14.69;56.34;93020.13;5063578;28;20071;-77
2023/04/25 10:31:26;;;;;;;4.78;0.90;;;;;;;14.84;54.12;93007.75;5062330;28;20020;-78
2023/04/25 10:33:53;;;;;;;1.17;0.60;;;;;;;14.97;45.29;92992.22;5063338;28;20103;-76
2023/04/25 10:36:21;;;;;;;1.60;0.70;;;;;;;15.32;48.69;92991.91;5063151;28;20021;-76
2023/04/25 10:38:50;;;;;;;0.60;0.47;;;;;;;15.55;44.23;92991.06;5063194;28;20051;-76
2023/04/25 10:41:18;;;;;;;0.40;0.30;;;;;;;15.82;46.55;92994.50;5063089;28;20032;-74
2023/04/25 10:43:45;;;;;;;3.67;1.30;;;;;;;15.99;46.72;92995.81;5062859;28;20024;-77
2023/04/25 10:46:32;;;;;;;3.95;1.48;;;;;;;16.11;43.71;93008.22;5063107;28;20112;-76
2023/04/25 10:49:04;;;;;;;6.88;1.40;;;;;;;16.05;45.30;93010.47;5062633;28;20024;-79
2023/04/25 10:51:34;;;;;;;9.18;3.22;;;;;;;16.04;43.78;93011.63;5063180;28;20067;-79
2023/04/25 10:54:07;;;;;;;27.45;9.02;;;;;;;15.94;43.56;93020.34;5062779;28;20331;-76
2023/04/25 10:56:35;;;;;;;29.30;13.68;;;;;;;15.97;45.80;93020.38;5062585;28;20021;-81
2023/04/25 10:59:10;;;;;;;27.50;14.77;;;;;;;15.87;43.77;93025.63;5062548;28;20025;-81
2023/04/25 11:01:41;;;;;;;1.15;0.82;;;;;;;15.60;44.29;93017.59;5063046;28;20041;-81
2023/04/25 11:04:25;;;;;;;4.28;0.60;;;;;;;15.82;47.72;93007.91;5063100;28;20463;-82
2023/04/25 11:07:13;;;;;;;3.05;0.52;;;;;;;15.98;44.52;93005.03;5063235;28;20041;-84
2023/04/25 11:09:40;;;;;;;1.27;0.73;;;;;;;16.16;42.83;93006.00;5063371;28;20088;-83
2023/04/25 11:12:08;;;;;;;0.45;0.30;;;;;;;16.37;42.67;92996.59;5063593;28;20036;-84
2023/04/25 11:14:33;;;;;;;2.05;0.80;;;;;;;16.77;43.15;92995.00;5063255;28;20088;-84
2023/04/25 11:17:00;;;;;;;4.65;0.77;;;;;;;16.82;40.73;92983.91;5062482;28;20017;-85
2023/04/25 11:19:26;;;;;;;1.30;0.85;;;;;;;16.95;41.87;92979.78;5063426;28;20074;-85
2023/04/25 11:22:00;;;;;;;2.53;0.80;;;;;;;16.99;40.46;92985.19;5063196;28;20032;-83
2023/04/25 11:24:45;;;;;;;1.92;0.70;;;;;;;16.97;41.72;92988.25;5063003;28;20387;-82
2023/04/25 11:27:10;;;;;;;2.47;1.42;;;;;;;16.80;43.30;92999.63;5062828;28;20037;-82